Time;durP1;ratioP1;P1;durP2;ratioP2;P2;SDS_P1;SDS_P2;PMS_P1;PMS_P2;Temp;Humidity;BMP_temperature;BMP_pressure;BME280_temperature;BME280_humidity;BME280_pressure;Samples;Min_cycle;Max_cycle;Signal;HPM_P1;HPM_P2
2023/10/19 00:00:57;;;;;;;6.73;6.47;;;22.20;81.20;;;;;;5011260;28;20509;-74
2023/10/19 00:03:25;;;;;;;6.57;6.27;;;22.10;81.10;;;;;;5011870;28;20442;-74
2023/10/19 00:05:51;;;;;;;6.77;6.47;;;22.20;81.20;;;;;;5011667;28;20446;-74
2023/10/19 00:08:20;;;;;;;6.60;6.40;;;22.10;81.00;;;;;;5011695;28;20527;-74
2023/10/19 00:10:47;;;;;;;6.60;6.40;;;22.20;81.20;;;;;;5011284;28;20230;-75
2023/10/19 00:13:19;;;;;;;6.87;6.57;;;22.10;81.10;;;;;;5011673;28;20536;-74
2023/10/19 00:15:51;;;;;;;6.40;6.20;;;22.20;81.10;;;;;;5011587;28;20922;-74
2023/10/19 00:18:23;;;;;;;6.57;6.37;;;22.10;81.10;;;;;;5011571;28;20446;-74
2023/10/19 00:20:53;;;;;;;6.53;6.23;;;22.20;81.10;;;;;;5010944;28;20477;-74
2023/10/19 00:23:28;;;;;;;7.07;6.77;;;22.10;81.00;;;;;;5011621;28;20453;-74
2023/10/19 00:25:55;;;;;;;6.07;5.87;;;22.10;81.00;;;;;;5011442;28;20454;-74
2023/10/19 00:28:26;;;;;;;6.53;6.33;;;22.10;81.10;;;;;;5011451;28;20449;-74
2023/10/19 00:30:59;;;;;;;6.97;6.67;;;22.20;81.20;;;;;;5012757;28;20548;-73
2023/10/19 00:33:28;;;;;;;7.00;6.80;;;22.20;81.90;;;;;;5015076;28;20486;-74
2023/10/19 00:36:00;;;;;;;7.53;7.00;;;22.10;81.10;;;;;;5014881;28;20453;-74
2023/10/19 00:38:41;;;;;;;6.20;6.00;;;22.20;81.10;;;;;;5015116;28;20457;-74
2023/10/19 00:41:13;;;;;;;6.00;5.80;;;22.20;81.10;;;;;;5014617;28;20577;-74
2023/10/19 00:43:43;;;;;;;5.87;5.70;;;22.20;81.10;;;;;;5014960;28;20992;-74
2023/10/19 00:46:20;;;;;;;6.47;6.17;;;22.20;81.10;;;;;;5014706;28;20473;-75
2023/10/19 00:48:50;;;;;;;5.87;5.70;;;22.20;81.10;;;;;;5014954;28;20524;-74
2023/10/19 00:51:38;;;;;;;7.30;6.90;;;22.20;81.20;;;;;;5014574;28;20883;-74
2023/10/19 00:54:10;;;;;;;6.60;6.20;;;22.20;81.10;;;;;;5014757;28;20527;-74
2023/10/19 00:56:41;;;;;;;6.00;5.90;;;22.20;81.20;;;;;;5014524;28;20445;-74
2023/10/19 00:59:14;;;;;;;6.80;6.60;;;22.20;81.20;;;;;;5014687;28;20520;-74
2023/10/19 01:01:45;;;;;;;6.50;6.10;;;22.20;81.10;;;;;;5014381;28;20470;-74
2023/10/19 01:04:14;;;;;;;6.30;6.10;;;22.20;81.10;;;;;;5012957;28;20446;-74
2023/10/19 01:06:43;;;;;;;6.50;6.30;;;22.10;81.00;;;;;;5013400;28;20438;-74
2023/10/19 01:09:14;;;;;;;6.30;6.10;;;22.20;81.10;;;;;;5014517;28;20458;-74
2023/10/19 01:11:45;;;;;;;6.10;5.90;;;22.20;81.10;;;;;;5014395;28;20501;-74
2023/10/19 01:14:32;;;;;;;6.60;6.40;;;22.20;81.10;;;;;;5014355;28;20449;-74
2023/10/19 01:17:02;;;;;;;6.80;6.50;;;22.20;81.10;;;;;;5014063;28;20486;-74
2023/10/19 01:19:29;;;;;;;5.97;5.80;;;22.20;81.10;;;;;;5014367;28;20474;-74
2023/10/19 01:22:01;;;;;;;5.87;5.77;;;22.20;81.10;;;;;;5014200;28;20449;-74
2023/10/19 01:24:39;;;;;;;6.53;6.30;;;22.20;81.10;;;;;;5014071;28;20938;-75
2023/10/19 01:27:08;;;;;;;7.00;6.70;;;22.20;81.10;;;;;;5014218;28;20442;-74
2023/10/19 01:29:37;;;;;;;6.23;6.03;;;22.20;81.10;;;;;;5014206;28;20472;-74
2023/10/19 01:32:08;;;;;;;6.60;6.40;;;22.20;81.10;;;;;;5013884;28;20586;-74
2023/10/19 01:34:35;;;;;;;6.90;6.70;;;22.20;81.10;;;;;;5013826;28;20454;-74
2023/10/19 01:37:03;;;;;;;6.10;5.90;;;22.20;81.10;;;;;;5013964;28;20445;-74
2023/10/19 01:39:32;;;;;;;6.47;6.20;;;22.20;81.10;;;;;;5013897;28;20470;-74
2023/10/19 01:41:58;;;;;;;6.10;5.90;;;22.20;81.10;;;;;;5013137;28;20537;-74
2023/10/19 01:44:26;;;;;;;6.00;5.80;;;22.20;81.10;;;;;;5013733;28;20438;-75
2023/10/19 01:46:52;;;;;;;6.30;6.10;;;22.20;81.10;;;;;;5013802;28;20446;-74
2023/10/19 01:49:26;;;;;;;6.70;6.50;;;22.20;81.10;;;;;;5013745;28;20536;-75
2023/10/19 01:51:53;;;;;;;7.77;7.47;;;22.20;81.10;;;;;;5013580;28;20450;-74
2023/10/19 01:54:24;;;;;;;7.23;6.73;;;22.10;81.00;;;;;;5012826;28;20514;-75
2023/10/19 01:56:54;;;;;;;7.30;7.00;;;22.20;81.10;;;;;;5013590;28;20454;-75
2023/10/19 01:59:26;;;;;;;6.60;6.40;;;22.20;81.10;;;;;;5013597;28;20484;-75
2023/10/19 02:01:52;;;;;;;6.27;6.07;;;22.20;81.10;;;;;;5013239;28;20469;-75
2023/10/19 02:04:21;;;;;;;6.10;5.93;;;22.20;81.10;;;;;;5013170;28;20442;-75
2023/10/19 02:06:48;;;;;;;6.40;6.20;;;22.20;81.10;;;;;;5013468;28;20203;-75
2023/10/19 02:09:21;;;;;;;5.73;5.53;;;22.20;81.10;;;;;;5012767;28;20830;-75
2023/10/19 02:11:49;;;;;;;5.73;5.53;;;22.20;81.20;;;;;;5013017;28;20541;-74
2023/10/19 02:14:19;;;;;;;6.40;6.20;;;22.20;81.10;;;;;;5013208;28;20961;-75
2023/10/19 02:16:50;;;;;;;6.63;6.43;;;22.20;81.10;;;;;;5013729;28;20548;-75
2023/10/19 02:19:17;;;;;;;5.97;5.80;;;22.20;81.20;;;;;;5013111;28;20581;-74
2023/10/19 02:21:47;;;;;;;6.50;6.40;;;22.20;81.20;;;;;;5013165;28;20829;-74
2023/10/19 02:24:14;;;;;;;5.77;5.67;;;22.20;81.20;;;;;;5013097;28;20988;-74
2023/10/19 02:26:41;;;;;;;6.10;5.90;;;22.20;81.30;;;;;;5013085;28;20797;-74
2023/10/19 02:29:09;;;;;;;6.40;6.20;;;22.20;81.20;;;;;;5012614;28;20835;-74
2023/10/19 02:31:39;;;;;;;5.80;5.60;;;22.20;81.20;;;;;;5012570;28;20450;-75
2023/10/19 02:34:07;;;;;;;6.33;6.13;;;22.20;81.20;;;;;;5012900;28;20572;-75
2023/10/19 02:36:34;;;;;;;5.97;5.87;;;22.20;81.10;;;;;;5012973;28;20618;-74
2023/10/19 02:39:07;;;;;;;6.33;6.13;;;22.20;81.10;;;;;;5012492;28;20442;-74
2023/10/19 02:41:36;;;;;;;7.20;6.90;;;22.20;81.20;;;;;;5054219;22;20543;-74
2023/10/19 02:44:05;;;;;;;5.80;5.60;;;22.20;81.90;;;;;;5032311;28;20524;-73
2023/10/19 02:46:32;;;;;;;6.43;6.23;;;22.20;81.10;;;;;;5032101;28;20445;-73
2023/10/19 02:49:03;;;;;;;6.00;5.90;;;22.20;81.20;;;;;;5036925;28;20446;-73
2023/10/19 02:51:30;;;;;;;6.50;6.20;;;22.20;81.20;;;;;;5032124;28;20504;-74
2023/10/19 02:53:57;;;;;;;6.03;5.83;;;22.20;81.20;;;;;;5031044;28;20481;-73
2023/10/19 02:56:24;;;;;;;5.70;5.50;;;22.20;81.20;;;;;;5031823;28;20528;-73
2023/10/19 02:58:50;;;;;;;6.03;5.80;;;22.20;81.30;;;;;;5032418;28;20864;-73
2023/10/19 03:01:21;;;;;;;6.50;5.83;;;22.20;81.30;;;;;;5031703;28;20465;-73
2023/10/19 03:03:53;;;;;;;5.90;5.80;;;22.20;81.30;;;;;;5032084;28;20203;-74
2023/10/19 03:06:21;;;;;;;6.13;5.93;;;22.20;81.30;;;;;;5024084;28;20816;-72
2023/10/19 03:08:52;;;;;;;5.30;5.20;;;22.20;81.30;;;;;;5032015;28;20455;-72
2023/10/19 03:11:19;;;;;;;6.53;6.33;;;22.20;81.30;;;;;;5034814;28;20472;-72
2023/10/19 03:13:49;;;;;;;5.50;5.40;;;22.20;81.20;;;;;;5031915;28;20484;-73
2023/10/19 03:16:17;;;;;;;6.43;6.23;;;22.20;81.20;;;;;;5031479;28;20499;-74
2023/10/19 03:18:44;;;;;;;6.00;5.90;;;22.20;81.20;;;;;;5031888;28;20802;-73
2023/10/19 03:21:11;;;;;;;6.50;6.30;;;22.20;81.20;;;;;;5031409;28;20484;-73
2023/10/19 03:23:40;;;;;;;5.90;5.70;;;22.20;81.20;;;;;;5031783;28;20471;-73
2023/10/19 03:26:22;;;;;;;6.40;6.20;;;22.20;81.20;;;;;;5031303;28;20480;-73
2023/10/19 03:28:54;;;;;;;6.70;6.50;;;22.20;81.30;;;;;;5031818;28;20456;-72
2023/10/19 03:31:22;;;;;;;6.77;6.57;;;22.20;81.20;;;;;;5023653;28;20465;-73
2023/10/19 03:33:53;;;;;;;6.23;6.03;;;22.20;81.30;;;;;;5031505;28;20487;-74
2023/10/19 03:36:21;;;;;;;6.47;6.37;;;22.20;81.30;;;;;;5031317;28;20456;-73
2023/10/19 03:38:51;;;;;;;6.27;6.17;;;22.20;81.30;;;;;;5034280;28;20490;-74
2023/10/19 03:41:21;;;;;;;6.70;6.50;;;22.20;81.40;;;;;;5031230;28;20473;-74
2023/10/19 03:43:49;;;;;;;6.63;6.53;;;22.20;81.40;;;;;;5031597;28;20445;-73
2023/10/19 03:46:22;;;;;;;6.47;6.30;;;22.20;81.40;;;;;;5031140;28;20803;-73
2023/10/19 03:48:49;;;;;;;6.73;6.40;;;22.20;82.10;;;;;;5031639;28;20444;-72
2023/10/19 03:51:17;;;;;;;6.30;6.20;;;22.20;81.30;;;;;;5031317;28;20493;-73
2023/10/19 03:53:48;;;;;;;6.27;6.07;;;22.20;81.30;;;;;;5031407;28;20476;-74
2023/10/19 03:56:17;;;;;;;5.50;5.40;;;22.20;81.20;;;;;;5031174;28;20449;-73
2023/10/19 03:58:50;;;;;;;5.87;5.77;;;22.20;81.30;;;;;;5031076;28;20441;-73
2023/10/19 04:01:19;;;;;;;6.90;6.70;;;22.20;81.40;;;;;;5031135;28;20457;-71
2023/10/19 04:03:46;;;;;;;7.20;7.00;;;22.20;81.40;;;;;;5031322;28;20536;-73
2023/10/19 04:06:14;;;;;;;6.53;6.33;;;22.20;81.50;;;;;;5033093;28;20495;-73
2023/10/19 04:08:45;;;;;;;7.57;7.20;;;22.20;81.60;;;;;;5035201;28;20441;-74
2023/10/19 04:11:21;;;;;;;7.90;7.63;;;22.20;81.60;;;;;;5035447;28;20948;-73
2023/10/19 04:13:53;;;;;;;6.33;6.13;;;22.20;81.70;;;;;;5037487;28;20487;-70
2023/10/19 04:16:20;;;;;;;6.87;6.67;;;22.30;81.80;;;;;;5034742;28;20491;-73
2023/10/19 04:18:48;;;;;;;6.97;6.70;;;22.30;81.80;;;;;;5036424;28;20469;-72
2023/10/19 04:21:15;;;;;;;6.27;6.07;;;22.30;81.80;;;;;;5035830;28;20465;-73
2023/10/19 04:23:42;;;;;;;6.50;6.40;;;22.20;81.80;;;;;;5034955;28;20480;-72
2023/10/19 04:26:11;;;;;;;8.20;8.00;;;22.20;81.80;;;;;;5034677;28;20877;-72
2023/10/19 04:28:44;;;;;;;6.93;6.80;;;22.30;81.90;;;;;;5035170;28;20932;-72
2023/10/19 04:31:16;;;;;;;8.23;8.03;;;22.30;81.80;;;;;;5033352;28;20831;-73
2023/10/19 04:33:45;;;;;;;7.27;7.07;;;22.30;81.90;;;;;;5034714;28;20500;-73
2023/10/19 04:36:13;;;;;;;7.50;7.30;;;22.30;81.90;;;;;;5034415;28;20486;-74
2023/10/19 04:38:40;;;;;;;7.13;6.93;;;22.30;81.90;;;;;;5034786;28;20491;-73
2023/10/19 04:41:08;;;;;;;7.03;6.83;;;22.30;81.80;;;;;;5044453;28;20499;-71
2023/10/19 04:43:36;;;;;;;7.20;6.90;;;22.30;81.80;;;;;;5038049;28;20934;-73
2023/10/19 04:46:10;;;;;;;10.70;9.10;;;22.30;83.10;;;;;;5034439;28;20816;-71
2023/10/19 04:48:40;;;;;;;10.27;9.27;;;22.30;83.90;;;;;;5035918;28;20515;-73
2023/10/19 04:51:09;;;;;;;8.87;7.93;;;22.30;90.60;;;;;;5034133;28;20456;-73
2023/10/19 04:53:37;;;;;;;8.57;8.27;;;22.30;87.00;;;;;;5034147;28;20881;-74
2023/10/19 04:56:04;;;;;;;8.97;8.20;;;22.30;85.70;;;;;;5034226;28;20801;-73
2023/10/19 04:58:32;;;;;;;9.20;8.30;;;22.30;85.40;;;;;;5034138;28;20551;-74
2023/10/19 05:00:59;;;;;;;8.40;8.00;;;22.40;85.30;;;;;;5033859;28;20515;-73
2023/10/19 05:03:27;;;;;;;8.23;7.60;;;22.40;85.20;;;;;;5034167;28;20437;-73
2023/10/19 05:05:56;;;;;;;8.83;8.23;;;22.30;84.90;;;;;;5033827;28;20536;-73
2023/10/19 05:08:25;;;;;;;9.10;8.37;;;22.40;85.00;;;;;;5025777;28;20450;-72
2023/10/19 05:10:53;;;;;;;7.77;7.30;;;22.40;84.80;;;;;;5033761;28;20457;-73
2023/10/19 05:13:20;;;;;;;8.30;7.70;;;22.30;84.60;;;;;;5033577;28;21018;-73
2023/10/19 05:15:47;;;;;;;9.17;8.57;;;22.40;84.60;;;;;;5033794;28;20437;-72
2023/10/19 05:18:14;;;;;;;10.53;9.67;;;22.40;84.40;;;;;;5032756;28;20492;-73
2023/10/19 05:20:41;;;;;;;7.43;7.13;;;22.40;84.30;;;;;;5033581;28;20507;-73
2023/10/19 05:23:10;;;;;;;8.03;7.53;;;22.40;84.20;;;;;;5033483;28;20437;-73
2023/10/19 05:25:37;;;;;;;8.57;8.07;;;22.40;84.10;;;;;;5033572;28;20437;-73
2023/10/19 05:28:06;;;;;;;9.10;8.70;;;22.40;84.10;;;;;;5033446;28;20441;-73
2023/10/19 05:30:33;;;;;;;7.90;7.40;;;22.40;83.90;;;;;;5033470;28;20465;-73
2023/10/19 05:33:01;;;;;;;7.97;7.43;;;22.40;83.90;;;;;;5033210;28;20956;-73
2023/10/19 05:35:29;;;;;;;7.90;7.53;;;22.40;84.50;;;;;;5033316;28;20789;-73
2023/10/19 05:37:57;;;;;;;8.30;7.77;;;22.40;83.70;;;;;;5033403;28;20441;-73
2023/10/19 05:40:29;;;;;;;10.87;9.97;;;22.40;83.70;;;;;;5033103;28;20544;-73
2023/10/19 05:42:57;;;;;;;8.30;8.00;;;22.40;83.70;;;;;;5033417;28;20441;-73
2023/10/19 05:45:24;;;;;;;8.53;8.03;;;22.40;83.70;;;;;;5032976;28;20958;-73
2023/10/19 05:47:51;;;;;;;8.73;7.83;;;22.40;83.60;;;;;;5033259;28;20437;-71
2023/10/19 05:50:19;;;;;;;8.80;8.37;;;22.40;83.60;;;;;;5032964;28;20508;-73
2023/10/19 05:52:47;;;;;;;8.40;8.10;;;22.40;83.60;;;;;;5033039;28;20445;-72
2023/10/19 05:55:14;;;;;;;8.87;8.37;;;22.40;83.50;;;;;;5032756;28;20485;-71
2023/10/19 05:57:42;;;;;;;8.10;7.80;;;22.40;83.50;;;;;;5033014;28;20480;-72
2023/10/19 06:00:15;;;;;;;7.53;7.33;;;22.40;84.20;;;;;;5032785;28;20496;-73
2023/10/19 06:02:44;;;;;;;9.73;8.93;;;22.40;83.40;;;;;;5032947;28;20469;-71
2023/10/19 06:05:11;;;;;;;7.93;7.57;;;22.50;83.50;;;;;;5032578;28;20612;-73
2023/10/19 06:07:38;;;;;;;8.80;8.40;;;22.50;83.50;;;;;;5032830;28;20481;-72
2023/10/19 06:10:06;;;;;;;8.57;7.77;;;22.50;83.50;;;;;;5032744;28;20484;-73
2023/10/19 06:12:34;;;;;;;7.33;7.03;;;22.50;83.40;;;;;;5032837;28;20854;-73
2023/10/19 06:15:03;;;;;;;6.90;6.70;;;22.40;83.30;;;;;;5032333;28;20491;-71
2023/10/19 06:17:30;;;;;;;8.10;7.73;;;22.50;83.30;;;;;;5032583;28;20476;-71
2023/10/19 06:19:57;;;;;;;8.97;8.57;;;22.40;83.20;;;;;;5032517;28;20976;-73
2023/10/19 06:22:24;;;;;;;8.07;7.67;;;22.50;83.20;;;;;;5032421;28;20495;-74
2023/10/19 06:24:51;;;;;;;8.47;8.00;;;22.50;83.20;;;;;;5032382;28;20465;-73
2023/10/19 06:27:18;;;;;;;8.20;7.70;;;22.50;83.10;;;;;;5032462;28;20448;-72
2023/10/19 06:29:45;;;;;;;7.60;7.40;;;22.50;83.10;;;;;;5032235;28;20889;-73
2023/10/19 06:32:14;;;;;;;7.77;7.47;;;22.50;83.10;;;;;;5032158;28;20433;-74
2023/10/19 06:34:41;;;;;;;7.70;7.40;;;22.50;83.00;;;;;;5032155;28;20828;-73
2023/10/19 06:37:10;;;;;;;8.20;7.80;;;22.50;83.00;;;;;;5032169;28;20940;-74
2023/10/19 06:39:40;;;;;;;8.53;8.03;;;22.50;83.00;;;;;;5032089;28;20528;-73
2023/10/19 06:42:10;;;;;;;8.40;7.90;;;22.50;82.90;;;;;;5032163;28;21002;-72
2023/10/19 06:44:37;;;;;;;9.10;8.67;;;22.50;82.90;;;;;;5031932;28;20815;-72
2023/10/19 06:47:06;;;;;;;7.50;7.20;;;22.50;82.90;;;;;;5031950;28;20445;-72
2023/10/19 06:49:35;;;;;;;8.10;7.70;;;22.50;82.80;;;;;;5032002;28;20575;-72
2023/10/19 06:52:04;;;;;;;8.73;8.33;;;22.50;82.80;;;;;;5032233;28;20443;-72
2023/10/19 06:54:31;;;;;;;8.17;7.87;;;22.50;82.80;;;;;;5024069;28;20538;-72
2023/10/19 06:56:58;;;;;;;8.00;7.67;;;22.50;82.70;;;;;;5032165;28;20605;-73
2023/10/19 06:59:25;;;;;;;8.40;8.10;;;22.50;82.70;;;;;;5031850;28;20441;-72
2023/10/19 07:01:52;;;;;;;7.70;7.50;;;22.50;82.70;;;;;;5031788;28;20489;-74
2023/10/19 07:04:19;;;;;;;8.30;8.10;;;22.50;82.60;;;;;;5031648;28;20524;-72
2023/10/19 07:06:47;;;;;;;7.90;7.60;;;22.50;82.50;;;;;;5031812;28;20468;-73
2023/10/19 07:09:15;;;;;;;8.27;7.97;;;22.50;82.50;;;;;;5031704;28;20457;-72
2023/10/19 07:11:44;;;;;;;8.27;7.97;;;22.50;82.40;;;;;;5031699;28;20515;-73
2023/10/19 07:14:12;;;;;;;8.40;8.00;;;22.50;82.40;;;;;;5031468;28;20477;-73
2023/10/19 07:16:40;;;;;;;8.70;8.30;;;22.50;82.40;;;;;;5031500;28;20445;-72
2023/10/19 07:19:09;;;;;;;8.00;7.80;;;22.50;82.30;;;;;;5031405;28;20437;-71
2023/10/19 07:21:37;;;;;;;8.20;7.90;;;22.50;82.40;;;;;;5031320;28;20554;-73
2023/10/19 07:24:09;;;;;;;8.23;7.50;;;22.50;82.40;;;;;;5031325;28;20441;-72
2023/10/19 07:26:43;;;;;;;8.10;7.90;;;22.50;82.40;;;;;;5031318;28;20452;-72
2023/10/19 07:29:14;;;;;;;8.10;7.90;;;22.50;82.40;;;;;;5031431;28;20441;-73
2023/10/19 07:31:41;;;;;;;8.43;8.13;;;22.50;82.40;;;;;;5031340;28;20560;-73
2023/10/19 07:34:12;;;;;;;8.10;7.80;;;22.50;82.40;;;;;;5031118;28;20519;-72
2023/10/19 07:36:39;;;;;;;8.47;8.27;;;22.50;82.40;;;;;;5031298;28;20473;-73
2023/10/19 07:39:13;;;;;;;7.97;7.67;;;22.50;82.40;;;;;;5031517;28;20484;-73
2023/10/19 07:41:40;;;;;;;7.60;7.27;;;22.60;82.50;;;;;;5030682;28;20469;-72
2023/10/19 07:44:07;;;;;;;8.13;7.83;;;22.50;82.40;;;;;;5031160;28;20986;-72
2023/10/19 07:46:34;;;;;;;8.20;8.00;;;22.60;82.50;;;;;;5031199;28;20476;-73
2023/10/19 07:49:03;;;;;;;8.73;8.43;;;22.60;82.50;;;;;;5031280;28;20481;-73
2023/10/19 07:51:30;;;;;;;8.90;8.70;;;22.60;82.40;;;;;;5022758;28;20469;-71
2023/10/19 07:53:57;;;;;;;8.47;8.17;;;22.60;82.40;;;;;;5030879;28;21025;-72
2023/10/19 07:56:25;;;;;;;9.50;9.20;;;22.60;82.40;;;;;;5030772;28;20437;-72
2023/10/19 07:58:52;;;;;;;8.43;8.17;;;22.60;83.10;;;;;;5031261;28;20448;-72
2023/10/19 08:01:19;;;;;;;8.40;7.90;;;22.60;82.30;;;;;;5031068;28;20499;-73
2023/10/19 08:03:46;;;;;;;8.93;8.63;;;22.60;82.30;;;;;;5030896;28;20467;-71
2023/10/19 08:06:13;;;;;;;8.60;8.30;;;22.60;82.30;;;;;;5030743;28;20469;-72
2023/10/19 08:08:41;;;;;;;9.00;8.80;;;22.60;82.30;;;;;;5031111;28;20442;-73
2023/10/19 08:11:09;;;;;;;8.87;8.60;;;22.60;82.30;;;;;;5030736;28;20775;-72
2023/10/19 08:13:37;;;;;;;8.87;8.57;;;22.60;82.20;;;;;;5030970;28;20445;-72
2023/10/19 08:16:06;;;;;;;8.43;8.23;;;22.60;82.30;;;;;;5030949;28;20460;-72
2023/10/19 08:18:35;;;;;;;8.80;8.50;;;22.60;82.20;;;;;;5023180;28;20441;-70
2023/10/19 08:21:02;;;;;;;8.93;8.63;;;22.60;82.20;;;;;;5030883;28;20473;-73
2023/10/19 08:23:31;;;;;;;8.23;7.97;;;22.60;83.00;;;;;;5030807;28;20435;-70
2023/10/19 08:25:59;;;;;;;7.93;7.63;;;22.60;82.20;;;;;;5030880;28;20430;-70
2023/10/19 08:28:27;;;;;;;9.30;9.00;;;22.60;82.20;;;;;;5030890;28;20437;-71
2023/10/19 08:31:00;;;;;;;8.83;8.63;;;22.60;82.10;;;;;;5030863;28;20510;-70
2023/10/19 08:33:27;;;;;;;9.00;8.80;;;22.60;82.10;;;;;;5030795;28;20449;-70
2023/10/19 08:35:54;;;;;;;8.40;8.20;;;22.60;82.10;;;;;;5030647;28;20564;-71
2023/10/19 08:38:22;;;;;;;8.70;8.50;;;22.60;82.00;;;;;;5030758;28;20496;-71
2023/10/19 08:40:50;;;;;;;8.13;7.77;;;22.60;82.00;;;;;;5063288;22;20524;-69
2023/10/19 08:43:18;;;;;;;9.17;8.90;;;22.60;82.00;;;;;;5050539;28;20444;-69
2023/10/19 08:45:45;;;;;;;8.83;8.53;;;22.60;82.00;;;;;;5050722;28;20957;-69
2023/10/19 08:48:14;;;;;;;9.13;8.83;;;22.60;82.00;;;;;;5050624;28;20464;-68
2023/10/19 08:50:41;;;;;;;9.10;8.80;;;22.60;82.00;;;;;;5045983;28;20496;-69
2023/10/19 08:53:10;;;;;;;8.47;8.27;;;22.60;82.70;;;;;;5040959;28;20441;-69
2023/10/19 08:55:37;;;;;;;8.90;8.60;;;22.60;81.90;;;;;;5045751;28;20912;-68
2023/10/19 08:58:05;;;;;;;8.57;8.37;;;22.60;81.90;;;;;;5045888;28;20444;-69
2023/10/19 09:00:46;;;;;;;8.87;8.67;;;22.60;81.90;;;;;;5042244;28;20547;-69
2023/10/19 09:03:16;;;;;;;8.97;8.57;;;22.60;81.90;;;;;;5043142;28;20444;-69
2023/10/19 09:05:46;;;;;;;7.90;7.70;;;22.60;81.90;;;;;;5045669;28;20436;-69
2023/10/19 09:08:17;;;;;;;9.20;8.80;;;22.70;82.10;;;;;;5044967;28;20441;-69
2023/10/19 09:10:46;;;;;;;8.50;8.30;;;22.70;82.10;;;;;;5042364;28;20561;-69
2023/10/19 09:13:18;;;;;;;9.40;9.10;;;22.70;82.10;;;;;;5042883;28;20559;-69
2023/10/19 09:15:45;;;;;;;8.60;8.30;;;22.60;81.90;;;;;;5045591;28;20562;-69
2023/10/19 09:18:18;;;;;;;8.70;8.40;;;22.70;82.10;;;;;;5044953;28;20858;-69
2023/10/19 09:21:02;;;;;;;8.90;8.60;;;22.70;82.20;;;;;;5041998;28;20890;-68
2023/10/19 09:23:29;;;;;;;8.60;8.40;;;22.70;82.10;;;;;;5044743;28;20440;-69
2023/10/19 09:25:58;;;;;;;9.23;8.90;;;22.70;82.10;;;;;;5045348;28;20444;-69
2023/10/19 09:28:25;;;;;;;8.70;8.40;;;22.70;82.10;;;;;;5043184;28;20494;-69
2023/10/19 09:30:53;;;;;;;7.33;7.13;;;22.70;82.10;;;;;;5041717;28;20493;-69
2023/10/19 09:33:24;;;;;;;7.50;7.30;;;22.70;82.10;;;;;;5043251;28;20526;-69
2023/10/19 09:35:52;;;;;;;8.47;8.27;;;22.60;81.90;;;;;;5045048;28;20480;-69
2023/10/19 09:38:21;;;;;;;7.73;7.60;;;22.60;81.90;;;;;;5043643;28;20949;-69
2023/10/19 09:40:49;;;;;;;7.80;7.60;;;22.70;82.00;;;;;;5041424;28;20464;-69
2023/10/19 09:43:20;;;;;;;8.17;7.77;;;22.70;82.00;;;;;;5042505;28;20525;-68
2023/10/19 09:45:51;;;;;;;7.93;7.83;;;22.70;82.10;;;;;;5044978;28;20436;-69
2023/10/19 09:48:21;;;;;;;8.23;8.03;;;22.70;82.00;;;;;;5043675;28;20444;-69
2023/10/19 09:50:54;;;;;;;8.80;8.60;;;22.70;82.00;;;;;;5041388;28;20488;-69
2023/10/19 09:53:24;;;;;;;7.90;7.53;;;22.70;82.00;;;;;;5043047;28;20535;-69
2023/10/19 09:55:52;;;;;;;8.50;8.20;;;22.70;82.00;;;;;;5044510;28;20555;-69
2023/10/19 09:58:23;;;;;;;7.70;7.50;;;22.70;82.00;;;;;;5043395;28;20484;-68
2023/10/19 10:00:51;;;;;;;7.60;7.40;;;22.70;82.00;;;;;;5041201;28;20487;-69
2023/10/19 10:03:51;;;;;;;8.40;8.20;;;22.70;81.90;;;;;;5041766;28;20871;-69
2023/10/19 10:06:27;;;;;;;7.77;7.57;;;22.70;81.90;;;;;;5043269;28;20462;-68
2023/10/19 10:08:55;;;;;;;7.90;7.70;;;22.70;81.90;;;;;;5041176;28;20480;-69
2023/10/19 10:11:26;;;;;;;8.30;8.10;;;22.70;81.90;;;;;;5042527;28;20496;-69
2023/10/19 10:13:54;;;;;;;8.27;8.07;;;22.70;81.90;;;;;;5044600;28;20466;-70
2023/10/19 10:16:24;;;;;;;8.17;7.97;;;22.70;81.90;;;;;;5042708;28;20477;-69
2023/10/19 10:18:59;;;;;;;8.53;8.23;;;22.70;81.90;;;;;;5040998;28;20464;-69
2023/10/19 10:21:27;;;;;;;7.30;7.20;;;22.70;81.90;;;;;;5043041;28;20475;-69
2023/10/19 10:23:57;;;;;;;7.97;7.77;;;22.70;81.80;;;;;;5044314;28;20437;-68
2023/10/19 10:26:25;;;;;;;8.70;8.50;;;22.70;81.80;;;;;;5042233;28;20444;-69
2023/10/19 10:29:11;;;;;;;7.80;7.60;;;22.70;81.80;;;;;;5040917;28;20447;-69
2023/10/19 10:31:43;;;;;;;7.90;7.60;;;22.70;81.80;;;;;;5032698;28;20500;-69
2023/10/19 10:34:12;;;;;;;8.50;8.00;;;22.70;81.80;;;;;;5040806;28;20467;-69
2023/10/19 10:37:00;;;;;;;7.70;7.50;;;22.70;81.80;;;;;;5032661;28;20476;-69
2023/10/19 10:39:27;;;;;;;7.67;7.47;;;22.70;81.80;;;;;;5042688;28;20476;-69
2023/10/19 10:41:57;;;;;;;7.93;7.83;;;22.70;81.80;;;;;;5043856;28;20495;-69
2023/10/19 10:44:37;;;;;;;7.50;7.30;;;22.70;81.80;;;;;;5041843;28;20444;-68
2023/10/19 10:47:06;;;;;;;7.60;7.40;;;22.70;81.80;;;;;;5040455;28;20528;-68
2023/10/19 10:49:34;;;;;;;7.47;7.37;;;22.70;81.90;;;;;;5043178;28;20440;-70
2023/10/19 10:52:01;;;;;;;7.33;7.20;;;22.70;81.80;;;;;;5043714;28;20484;-69
2023/10/19 10:54:28;;;;;;;7.83;7.60;;;22.70;81.90;;;;;;5041138;28;20934;-70
2023/10/19 10:56:55;;;;;;;7.20;7.00;;;22.70;81.80;;;;;;5040197;28;20441;-69
2023/10/19 10:59:22;;;;;;;7.40;7.20;;;22.70;81.80;;;;;;5041470;28;20480;-69
2023/10/19 11:01:49;;;;;;;7.10;6.93;;;22.80;82.00;;;;;;5043600;28;20484;-70
2023/10/19 11:04:17;;;;;;;7.20;7.10;;;22.70;81.80;;;;;;5042883;28;20531;-70
2023/10/19 11:06:52;;;;;;;7.60;7.40;;;22.80;82.00;;;;;;5040010;28;20438;-70
2023/10/19 11:09:19;;;;;;;7.50;7.30;;;22.80;81.90;;;;;;5040942;28;20449;-71
2023/10/19 11:11:46;;;;;;;7.40;7.20;;;22.80;81.90;;;;;;5043411;28;20490;-70
2023/10/19 11:14:13;;;;;;;7.60;7.40;;;22.80;81.90;;;;;;5043034;28;20446;-68
2023/10/19 11:16:40;;;;;;;7.30;7.10;;;22.80;82.00;;;;;;5039098;28;20562;-69
2023/10/19 11:19:09;;;;;;;6.70;6.60;;;22.80;81.90;;;;;;5040029;28;20445;-68
2023/10/19 11:21:36;;;;;;;6.80;6.70;;;22.80;81.90;;;;;;5042699;28;20547;-69
2023/10/19 11:24:07;;;;;;;8.07;7.87;;;22.80;81.90;;;;;;5032608;28;20480;-74
2023/10/19 11:26:41;;;;;;;6.67;6.47;;;22.80;84.20;;;;;;5042006;28;20996;-73
2023/10/19 11:29:09;;;;;;;7.50;7.30;;;22.80;87.40;;;;;;5035736;28;20445;-69
2023/10/19 11:31:39;;;;;;;8.10;7.90;;;22.80;87.50;;;;;;5042898;28;20967;-71
2023/10/19 11:34:08;;;;;;;6.77;6.57;;;22.80;88.20;;;;;;5039886;28;20524;-72
2023/10/19 11:36:35;;;;;;;7.20;6.97;;;22.80;89.20;;;;;;5041962;28;20518;-73
2023/10/19 11:39:04;;;;;;;7.43;7.27;;;22.80;89.60;;;;;;5043048;28;20480;-72
2023/10/19 11:41:32;;;;;;;6.90;6.70;;;22.80;90.00;;;;;;5040416;28;20472;-72
2023/10/19 11:44:00;;;;;;;7.00;6.70;;;22.80;89.50;;;;;;5039503;28;20452;-70
2023/10/19 11:46:29;;;;;;;7.87;7.63;;;22.80;90.00;;;;;;5040800;28;20448;-70
2023/10/19 11:48:56;;;;;;;7.37;7.17;;;22.80;90.30;;;;;;5039691;28;20441;-70
2023/10/19 11:51:23;;;;;;;7.40;7.20;;;22.80;90.50;;;;;;5043466;28;20489;-76
2023/10/19 11:53:50;;;;;;;8.07;7.77;;;22.80;90.20;;;;;;5044605;28;20932;-73
2023/10/19 11:56:17;;;;;;;7.90;7.70;;;22.80;90.40;;;;;;5040863;28;21000;-73
2023/10/19 11:58:46;;;;;;;7.60;7.40;;;22.80;90.90;;;;;;5043674;28;20450;-70
2023/10/19 12:01:14;;;;;;;8.00;7.80;;;22.80;91.10;;;;;;5043448;28;20464;-72
2023/10/19 12:03:41;;;;;;;8.13;7.87;;;22.80;91.30;;;;;;5031926;28;20448;-71
2023/10/19 12:06:09;;;;;;;7.30;7.10;;;22.90;91.40;;;;;;5039067;28;20503;-73
2023/10/19 12:08:38;;;;;;;7.27;7.00;;;22.90;91.50;;;;;;5043787;28;20531;-71
2023/10/19 12:11:15;;;;;;;8.10;7.80;;;22.90;91.50;;;;;;5043412;28;20880;-72
2023/10/19 12:13:45;;;;;;;7.77;7.07;;;22.90;91.60;;;;;;5040320;28;20460;-73
2023/10/19 12:16:15;;;;;;;7.17;6.97;;;22.90;91.70;;;;;;5040300;28;20478;-72
2023/10/19 12:18:43;;;;;;;7.27;7.07;;;22.90;91.70;;;;;;5032366;28;20456;-72
2023/10/19 12:21:11;;;;;;;6.80;6.60;;;23.00;91.70;;;;;;5039578;28;20475;-73
2023/10/19 12:23:40;;;;;;;7.50;7.30;;;23.00;91.60;;;;;;5043222;28;20447;-75
2023/10/19 12:26:10;;;;;;;7.63;7.43;;;23.00;91.10;;;;;;5044559;28;20448;-75
2023/10/19 12:28:38;;;;;;;8.03;7.70;;;23.10;91.00;;;;;;5045495;28;20437;-76
2023/10/19 12:31:08;;;;;;;7.60;7.40;;;23.10;90.60;;;;;;5044814;28;20895;-76
2023/10/19 12:33:38;;;;;;;7.50;7.20;;;23.10;90.30;;;;;;5047204;28;20449;-75
2023/10/19 12:36:23;;;;;;;7.57;7.37;;;23.20;90.10;;;;;;5047790;28;20899;-75
2023/10/19 12:38:50;;;;;;;7.90;7.70;;;23.20;89.90;;;;;;5045076;28;20472;-75
2023/10/19 12:41:18;;;;;;;7.40;7.20;;;23.20;89.50;;;;;;5045418;28;20507;-75
2023/10/19 12:43:46;;;;;;;8.17;7.77;;;23.20;89.20;;;;;;5048286;28;20531;-75
2023/10/19 12:46:13;;;;;;;7.97;7.77;;;23.20;89.00;;;;;;5047038;28;20524;-75
2023/10/19 12:48:42;;;;;;;7.40;7.20;;;23.20;88.70;;;;;;5043664;28;20472;-75
2023/10/19 12:51:11;;;;;;;7.83;7.63;;;23.20;88.60;;;;;;5043412;28;20500;-75
2023/10/19 12:53:38;;;;;;;8.00;7.60;;;23.30;88.50;;;;;;5046474;28;20452;-75
2023/10/19 12:56:05;;;;;;;7.70;7.50;;;23.20;88.20;;;;;;5046857;28;20530;-75